Kristina — SFB8756 — position and weather

sailwx.info

Track history (hours):
 
Tides and Currents Weather Stations Pressure Air Temp Water Temp Dewpoint Dewpoint Depression Visibility Wind Speed Wind Dir Waves Ship Positions

Kristina

Last reported at 2017-Sep-25 11:30 UTC. Time now 2017-Sep-25 11:55 UTC.
Position N 55°56' E 012°46'.

Length 11 m; draft 2 m.

Type: Fishing. MMSI: 265630900.

Date/timePositionNaut miles runAvg speedWind from/ knotsBaromVisibWave heightAir tempDewpointWater temp
2017-Sep-25 11:30N 55°56' E 012°46'0 0.0
2017-Sep-25 11:00N 55°56' E 012°46'0 0.0
2017-Sep-25 10:19N 55°56' E 012°46'1 2.1
2017-Sep-25 10:00N 55°56' E 012°45'2 3.6
2017-Sep-25 09:30N 55°56' E 012°42'0 0.5
2017-Sep-25 09:00N 55°55' E 012°42'0 0.3
2017-Sep-25 08:30N 55°55' E 012°42'0 0.4
2017-Sep-25 08:00N 55°55' E 012°43'1 1.2
2017-Sep-25 07:30N 55°55' E 012°42'0 0.5
2017-Sep-25 07:00N 55°55' E 012°41'0 0.1
2017-Sep-25 06:30N 55°56' E 012°41'0 0.3
2017-Sep-25 06:00N 55°56' E 012°41'2 3.5
2017-Sep-25 05:30N 55°56' E 012°44'1 1.8
2017-Sep-25 04:42N 55°56' E 012°46'0 0.0
2017-Sep-25 04:29N 55°56' E 012°46'0 0.0
2017-Sep-25 04:00N 55°56' E 012°46'0 0.0
2017-Sep-25 03:30N 55°56' E 012°46'0 0.0
2017-Sep-25 03:00N 55°56' E 012°46'0 0.0
2017-Sep-25 02:29N 55°56' E 012°46'0 0.0
2017-Sep-25 02:00N 55°56' E 012°46'0 0.0
2017-Sep-25 01:30N 55°56' E 012°46'0 0.0
2017-Sep-25 01:00N 55°56' E 012°46'0 0.0
2017-Sep-25 00:30N 55°56' E 012°46'0 0.0
2017-Sep-25 00:00N 55°56' E 012°46'0 0.0
2017-Sep-24 23:30N 55°56' E 012°46'0 0.0
2017-Sep-24 23:00N 55°56' E 012°46'0 0.0
2017-Sep-24 22:30N 55°56' E 012°46'0 0.0
2017-Sep-24 22:00N 55°56' E 012°46'0 0.0
2017-Sep-24 21:30N 55°56' E 012°46'0 0.0
2017-Sep-24 20:56N 55°56' E 012°46'0 0.0
2017-Sep-24 20:27N 55°56' E 012°46'0 0.0
2017-Sep-24 20:00N 55°56' E 012°46'0 0.0
2017-Sep-24 19:30N 55°56' E 012°46'0 0.0
2017-Sep-24 19:00N 55°56' E 012°46'0 0.0
2017-Sep-24 18:30N 55°56' E 012°46'0 0.0
2017-Sep-24 17:57N 55°56' E 012°46'0 0.0
2017-Sep-24 17:30N 55°56' E 012°46'0 0.0
2017-Sep-24 17:00N 55°56' E 012°46'0 0.0
2017-Sep-24 16:29N 55°56' E 012°46'0 0.0
2017-Sep-24 16:00N 55°56' E 012°46'0 0.0
2017-Sep-24 15:29N 55°56' E 012°46'0 0.0
2017-Sep-24 15:00N 55°56' E 012°46'0 0.0
2017-Sep-24 14:29N 55°56' E 012°46'0 0.0
2017-Sep-24 13:53N 55°56' E 012°46'0 0.0
2017-Sep-24 13:30N 55°56' E 012°46'0 0.0
2017-Sep-24 12:59N 55°56' E 012°46'0 0.0
2017-Sep-24 12:30N 55°56' E 012°46'0 0.0
2017-Sep-24 12:00N 55°56' E 012°46'0 0.0
2017-Sep-24 11:30N 55°56' E 012°46'0 0.0
2017-Sep-24 11:00N 55°56' E 012°46'0 0.0
2017-Sep-24 10:30N 55°56' E 012°46'0 0.0
2017-Sep-24 10:00N 55°56' E 012°46'0 0.0
2017-Sep-24 09:30N 55°56' E 012°46'0 0.0
2017-Sep-24 08:58N 55°56' E 012°46'1 1.4
2017-Sep-24 08:30N 55°56' E 012°45'2 4.9
2017-Sep-24 08:00N 55°55' E 012°41'1 1.9
2017-Sep-24 07:30N 55°55' E 012°43'2 3.9
2017-Sep-24 06:55N 55°56' E 012°46'0 0.0
2017-Sep-24 06:13N 55°56' E 012°46'0 0.0
2017-Sep-24 05:59N 55°56' E 012°46'0 0.0
2017-Sep-24 05:26N 55°56' E 012°46'0 0.0
2017-Sep-24 05:00N 55°56' E 012°46'0 0.0
2017-Sep-24 04:27N 55°56' E 012°46'0 0.0
2017-Sep-24 04:00N 55°56' E 012°46'0 0.0
2017-Sep-24 03:29N 55°56' E 012°46'0 0.0
2017-Sep-24 03:00N 55°56' E 012°46'0 0.0
2017-Sep-24 02:30N 55°56' E 012°46'0 0.0
2017-Sep-24 02:00N 55°56' E 012°46'0 0.0
2017-Sep-24 01:30N 55°56' E 012°46'0 0.0
2017-Sep-24 01:00N 55°56' E 012°46'0 0.0
2017-Sep-24 00:30N 55°56' E 012°46'0 0.0
2017-Sep-24 00:00N 55°56' E 012°46'0 0.0
2017-Sep-23 23:30N 55°56' E 012°46'0 0.0
2017-Sep-23 23:00N 55°56' E 012°46'0 0.0
2017-Sep-23 22:30N 55°56' E 012°46'0 0.0
2017-Sep-23 22:00N 55°56' E 012°46'0 0.0
2017-Sep-23 21:30N 55°56' E 012°46'0 0.0
2017-Sep-23 20:59N 55°56' E 012°46'0 0.0
2017-Sep-23 20:30N 55°56' E 012°46'0 0.0
2017-Sep-23 20:00N 55°56' E 012°46'0 0.0
2017-Sep-22 02:00N 55°56' E 012°46'0 0.0
2017-Sep-22 01:30N 55°56' E 012°46'0 0.0
2017-Sep-22 01:00N 55°56' E 012°46'0 0.0
2017-Sep-22 00:30N 55°56' E 012°46'0 0.0
2017-Sep-22 00:01N 55°56' E 012°46'0 0.0
2017-Sep-21 23:31N 55°56' E 012°46'0 0.0
2017-Sep-21 23:00N 55°56' E 012°46'0 0.0
2017-Sep-21 22:30N 55°56' E 012°46'0 0.0
2017-Sep-21 22:01N 55°56' E 012°46'0 0.0
2017-Sep-21 21:30N 55°56' E 012°46'0 0.0
2017-Sep-21 20:59N 55°56' E 012°46'0 0.0
2017-Sep-21 20:25N 55°56' E 012°46'0 0.0
2017-Sep-21 20:00N 55°56' E 012°46'0 0.0
2017-Sep-21 17:26N 55°56' E 012°46'0 0.0
2017-Sep-21 16:49N 55°56' E 012°46'0 0.0
2017-Sep-21 16:29N 55°56' E 012°46'0 0.0
2017-Sep-21 16:00N 55°56' E 012°46'0 0.0
2017-Sep-21 13:42N 55°56' E 012°46'0 0.0
2017-Sep-21 13:11N 55°56' E 012°46'0 0.0
2017-Sep-21 12:56N 55°56' E 012°46'0 0.0
2017-Sep-21 07:55N 55°56' E 012°46'0 0.0
2017-Sep-21 07:30N 55°56' E 012°46'0 0.0
2017-Sep-21 06:58N 55°56' E 012°46'0 0.0
2017-Sep-21 06:30N 55°56' E 012°46'0 0.0
2017-Sep-21 06:00N 55°56' E 012°46'0 0.0
2017-Sep-21 05:30N 55°56' E 012°46'0 0.0
2017-Sep-21 05:00N 55°56' E 012°46'0 0.0
2017-Sep-21 04:30N 55°56' E 012°46'0 0.0
2017-Sep-21 03:50N 55°56' E 012°46'0 0.0
2017-Sep-21 03:30N 55°56' E 012°46'0 0.0
2017-Sep-21 03:00N 55°56' E 012°46'0 0.0
2017-Sep-21 02:30N 55°56' E 012°46'0 0.0
2017-Sep-21 02:00N 55°56' E 012°46'0 0.0
2017-Sep-21 01:30N 55°56' E 012°46'0 0.0
2017-Sep-20 23:34N 55°56' E 012°46'0 0.0
2017-Sep-20 23:20N 55°56' E 012°46'0 0.0
2017-Sep-20 22:53N 55°56' E 012°46'0 0.0
2017-Sep-20 22:05N 55°56' E 012°46'0 0.0
2017-Sep-20 21:47N 55°56' E 012°46'0 0.0
2017-Sep-20 21:21N 55°56' E 012°46'0 0.0
2017-Sep-20 06:07N 55°56' E 012°46'0 0.0
2017-Sep-20 05:56N 55°56' E 012°46'0 0.0
2017-Sep-20 05:01N 55°56' E 012°46'0 0.0
2017-Sep-20 04:34N 55°56' E 012°46'0 0.1
2017-Sep-20 04:29N 55°56' E 012°46'0 0.0
2017-Sep-20 03:57N 55°56' E 012°46'0 0.0
2017-Sep-20 03:28N 55°56' E 012°46'0 0.0
2017-Sep-20 02:59N 55°56' E 012°46'0 0.0
2017-Sep-20 02:28N 55°56' E 012°46'0 0.0
2017-Sep-20 01:59N 55°56' E 012°46'0 0.0
2017-Sep-20 01:30N 55°56' E 012°46'0 0.0
2017-Sep-20 00:52N 55°56' E 012°46'0 0.0
2017-Sep-20 00:28N 55°56' E 012°46'0 0.0
2017-Sep-19 23:58N 55°56' E 012°46'0 0.0
2017-Sep-19 23:25N 55°56' E 012°46'0 0.0
2017-Sep-19 23:00N 55°56' E 012°46'0 0.0
2017-Sep-19 22:30N 55°56' E 012°46'0 0.0
2017-Sep-19 22:00N 55°56' E 012°46'0 0.0
2017-Sep-19 21:29N 55°56' E 012°46'0 0.0
2017-Sep-19 18:55N 55°56' E 012°46'0 0.0
2017-Sep-19 17:21N 55°56' E 012°46'0 0.0
2017-Sep-19 16:54N 55°56' E 012°46'0 0.0
2017-Sep-19 15:17N 55°56' E 012°46'0 0.0
2017-Sep-19 14:57N 55°56' E 012°46'0 0.0
2017-Sep-19 14:28N 55°56' E 012°46'0 0.0
2017-Sep-19 13:37N 55°56' E 012°46'0 0.0
2017-Sep-19 13:19N 55°56' E 012°46'0 0.0
2017-Sep-19 12:59N 55°56' E 012°46'0 0.0
2017-Sep-19 06:24N 55°56' E 012°46'0 0.0
2017-Sep-19 00:39N 55°56' E 012°46'0 0.0
2017-Sep-19 00:28N 55°56' E 012°46'0 0.0
2017-Sep-19 00:00N 55°56' E 012°46'0 0.0
2017-Sep-18 22:59N 55°56' E 012°46'0 0.0
2017-Sep-18 22:25N 55°56' E 012°46'0 0.0
2017-Sep-18 07:04N 55°56' E 012°46'0 0.0
2017-Sep-18 07:00N 55°56' E 012°46'0 0.0
2017-Sep-18 06:26N 55°56' E 012°46'0 0.0
2017-Sep-18 05:46N 55°56' E 012°46'0 0.0
2017-Sep-18 05:20N 55°56' E 012°46'0 0.0
2017-Sep-18 04:59N 55°56' E 012°46'0 0.0
2017-Sep-18 04:26N 55°56' E 012°46'0 0.0
2017-Sep-18 03:59N 55°56' E 012°46'0 0.0
2017-Sep-18 03:27N 55°56' E 012°46'0 0.0
2017-Sep-18 02:13N 55°56' E 012°46'0 0.0
2017-Sep-18 01:57N 55°56' E 012°46'0 0.0
2017-Sep-18 01:30N 55°56' E 012°46'0 0.0
2017-Sep-18 00:59N 55°56' E 012°46'0 0.0
2017-Sep-18 00:30N 55°56' E 012°46'0 0.0
2017-Sep-18 00:00N 55°56' E 012°46'0 0.0
2017-Sep-17 23:29N 55°56' E 012°46'0 0.0
2017-Sep-17 23:00N 55°56' E 012°46'0 0.0
2017-Sep-17 22:30N 55°56' E 012°46'0 0.0
2017-Sep-17 21:53N 55°56' E 012°46'0 0.0
2017-Sep-17 21:23N 55°56' E 012°46'0 0.0
2017-Sep-17 20:01N 55°56' E 012°46'0 0.0
2017-Sep-17 19:57N 55°56' E 012°46'0 0.0
2017-Sep-17 14:53N 55°56' E 012°46'0 0.0
2017-Sep-17 14:30N 55°56' E 012°46'0 0.0
2017-Sep-17 13:58N 55°56' E 012°46'0 0.0
2017-Sep-17 09:15N 55°56' E 012°46'0 0.0
2017-Sep-17 08:47N 55°56' E 012°46'0 0.0
2017-Sep-17 08:14N 55°56' E 012°46'0 0.0
2017-Sep-17 07:15N 55°56' E 012°46'0 0.0
2017-Sep-17 06:51N 55°56' E 012°46'0 0.0
2017-Sep-17 06:30N 55°56' E 012°46'0 0.0
2017-Sep-17 05:59N 55°56' E 012°46'0 0.0
2017-Sep-17 05:30N 55°56' E 012°46'0 0.0
2017-Sep-17 04:50N 55°56' E 012°46'0 0.0
2017-Sep-17 04:27N 55°56' E 012°46'0 0.0
2017-Sep-17 03:53N 55°56' E 012°46'0 0.0
2017-Sep-17 03:29N 55°56' E 012°46'0 0.0
2017-Sep-17 03:00N 55°56' E 012°46'0 0.0
2017-Sep-17 02:27N 55°56' E 012°46'0 0.0
2017-Sep-17 02:00N 55°56' E 012°46'0 0.0
2017-Sep-17 01:30N 55°56' E 012°46'0 0.0
2017-Sep-17 01:00N 55°56' E 012°46'0 0.0
2017-Sep-17 00:27N 55°56' E 012°46'0 0.0
2017-Sep-16 23:58N 55°56' E 012°46'0 0.0
2017-Sep-16 23:25N 55°56' E 012°46'0 0.0
2017-Sep-16 23:00N 55°56' E 012°46'0 0.0
2017-Sep-16 22:18N 55°56' E 012°46'0 0.0
2017-Sep-16 21:50N 55°56' E 012°46'0 0.0
2017-Sep-16 21:27N 55°56' E 012°46'  
Track history (hours):
 
Tides and Currents Weather Stations Pressure Air Temp Water Temp Dewpoint Dewpoint Depression Visibility Wind Speed Wind Dir Waves Ship Positions

Kristina

Last reported at 2017-Sep-25 11:30 UTC. Time now 2017-Sep-25 11:55 UTC.
Position N 55°56' E 012°46'.

Length 11 m; draft 2 m.

Type: Fishing. MMSI: 265630900.

Date/timePositionNaut miles runAvg speedWind from/ knotsBaromVisibWave heightAir tempDewpointWater temp
2017-Sep-25 11:30N 55°56' E 012°46'0 0.0
2017-Sep-25 11:00N 55°56' E 012°46'0 0.0
2017-Sep-25 10:19N 55°56' E 012°46'1 2.1
2017-Sep-25 10:00N 55°56' E 012°45'2 3.6
2017-Sep-25 09:30N 55°56' E 012°42'0 0.5
2017-Sep-25 09:00N 55°55' E 012°42'0 0.3
2017-Sep-25 08:30N 55°55' E 012°42'0 0.4
2017-Sep-25 08:00N 55°55' E 012°43'1 1.2
2017-Sep-25 07:30N 55°55' E 012°42'0 0.5
2017-Sep-25 07:00N 55°55' E 012°41'0 0.1
2017-Sep-25 06:30N 55°56' E 012°41'0 0.3
2017-Sep-25 06:00N 55°56' E 012°41'2 3.5
2017-Sep-25 05:30N 55°56' E 012°44'1 1.8
2017-Sep-25 04:42N 55°56' E 012°46'0 0.0
2017-Sep-25 04:29N 55°56' E 012°46'0 0.0
2017-Sep-25 04:00N 55°56' E 012°46'0 0.0
2017-Sep-25 03:30N 55°56' E 012°46'0 0.0
2017-Sep-25 03:00N 55°56' E 012°46'0 0.0
2017-Sep-25 02:29N 55°56' E 012°46'0 0.0
2017-Sep-25 02:00N 55°56' E 012°46'0 0.0
2017-Sep-25 01:30N 55°56' E 012°46'0 0.0
2017-Sep-25 01:00N 55°56' E 012°46'0 0.0
2017-Sep-25 00:30N 55°56' E 012°46'0 0.0
2017-Sep-25 00:00N 55°56' E 012°46'0 0.0
2017-Sep-24 23:30N 55°56' E 012°46'0 0.0
2017-Sep-24 23:00N 55°56' E 012°46'0 0.0
2017-Sep-24 22:30N 55°56' E 012°46'0 0.0
2017-Sep-24 22:00N 55°56' E 012°46'0 0.0
2017-Sep-24 21:30N 55°56' E 012°46'0 0.0
2017-Sep-24 20:56N 55°56' E 012°46'0 0.0
2017-Sep-24 20:27N 55°56' E 012°46'0 0.0
2017-Sep-24 20:00N 55°56' E 012°46'0 0.0
2017-Sep-24 19:30N 55°56' E 012°46'0 0.0
2017-Sep-24 19:00N 55°56' E 012°46'0 0.0
2017-Sep-24 18:30N 55°56' E 012°46'0 0.0
2017-Sep-24 17:57N 55°56' E 012°46'0 0.0
2017-Sep-24 17:30N 55°56' E 012°46'0 0.0
2017-Sep-24 17:00N 55°56' E 012°46'0 0.0
2017-Sep-24 16:29N 55°56' E 012°46'0 0.0
2017-Sep-24 16:00N 55°56' E 012°46'0 0.0
2017-Sep-24 15:29N 55°56' E 012°46'0 0.0
2017-Sep-24 15:00N 55°56' E 012°46'0 0.0
2017-Sep-24 14:29N 55°56' E 012°46'0 0.0
2017-Sep-24 13:53N 55°56' E 012°46'0 0.0
2017-Sep-24 13:30N 55°56' E 012°46'0 0.0
2017-Sep-24 12:59N 55°56' E 012°46'0 0.0
2017-Sep-24 12:30N 55°56' E 012°46'0 0.0
2017-Sep-24 12:00N 55°56' E 012°46'0 0.0
2017-Sep-24 11:30N 55°56' E 012°46'0 0.0
2017-Sep-24 11:00N 55°56' E 012°46'0 0.0
2017-Sep-24 10:30N 55°56' E 012°46'0 0.0
2017-Sep-24 10:00N 55°56' E 012°46'0 0.0
2017-Sep-24 09:30N 55°56' E 012°46'0 0.0
2017-Sep-24 08:58N 55°56' E 012°46'1 1.4
2017-Sep-24 08:30N 55°56' E 012°45'2 4.9
2017-Sep-24 08:00N 55°55' E 012°41'1 1.9
2017-Sep-24 07:30N 55°55' E 012°43'2 3.9
2017-Sep-24 06:55N 55°56' E 012°46'0 0.0
2017-Sep-24 06:13N 55°56' E 012°46'0 0.0
2017-Sep-24 05:59N 55°56' E 012°46'0 0.0
2017-Sep-24 05:26N 55°56' E 012°46'0 0.0
2017-Sep-24 05:00N 55°56' E 012°46'0 0.0
2017-Sep-24 04:27N 55°56' E 012°46'0 0.0
2017-Sep-24 04:00N 55°56' E 012°46'0 0.0
2017-Sep-24 03:29N 55°56' E 012°46'0 0.0
2017-Sep-24 03:00N 55°56' E 012°46'0 0.0
2017-Sep-24 02:30N 55°56' E 012°46'0 0.0
2017-Sep-24 02:00N 55°56' E 012°46'0 0.0
2017-Sep-24 01:30N 55°56' E 012°46'0 0.0
2017-Sep-24 01:00N 55°56' E 012°46'0 0.0
2017-Sep-24 00:30N 55°56' E 012°46'0 0.0
2017-Sep-24 00:00N 55°56' E 012°46'0 0.0
2017-Sep-23 23:30N 55°56' E 012°46'0 0.0
2017-Sep-23 23:00N 55°56' E 012°46'0 0.0
2017-Sep-23 22:30N 55°56' E 012°46'0 0.0
2017-Sep-23 22:00N 55°56' E 012°46'0 0.0
2017-Sep-23 21:30N 55°56' E 012°46'0 0.0
2017-Sep-23 20:59N 55°56' E 012°46'0 0.0
2017-Sep-23 20:30N 55°56' E 012°46'0 0.0
2017-Sep-23 20:00N 55°56' E 012°46'0 0.0
2017-Sep-22 02:00N 55°56' E 012°46'0 0.0
2017-Sep-22 01:30N 55°56' E 012°46'0 0.0
2017-Sep-22 01:00N 55°56' E 012°46'0 0.0
2017-Sep-22 00:30N 55°56' E 012°46'0 0.0
2017-Sep-22 00:01N 55°56' E 012°46'0 0.0
2017-Sep-21 23:31N 55°56' E 012°46'0 0.0
2017-Sep-21 23:00N 55°56' E 012°46'0 0.0
2017-Sep-21 22:30N 55°56' E 012°46'0 0.0
2017-Sep-21 22:01N 55°56' E 012°46'0 0.0
2017-Sep-21 21:30N 55°56' E 012°46'0 0.0
2017-Sep-21 20:59N 55°56' E 012°46'0 0.0
2017-Sep-21 20:25N 55°56' E 012°46'0 0.0
2017-Sep-21 20:00N 55°56' E 012°46'0 0.0
2017-Sep-21 17:26N 55°56' E 012°46'0 0.0
2017-Sep-21 16:49N 55°56' E 012°46'0 0.0
2017-Sep-21 16:29N 55°56' E 012°46'0 0.0
2017-Sep-21 16:00N 55°56' E 012°46'0 0.0
2017-Sep-21 13:42N 55°56' E 012°46'0 0.0
2017-Sep-21 13:11N 55°56' E 012°46'0 0.0
2017-Sep-21 12:56N 55°56' E 012°46'0 0.0
2017-Sep-21 07:55N 55°56' E 012°46'0 0.0
2017-Sep-21 07:30N 55°56' E 012°46'0 0.0
2017-Sep-21 06:58N 55°56' E 012°46'0 0.0
2017-Sep-21 06:30N 55°56' E 012°46'0 0.0
2017-Sep-21 06:00N 55°56' E 012°46'0 0.0
2017-Sep-21 05:30N 55°56' E 012°46'0 0.0
2017-Sep-21 05:00N 55°56' E 012°46'0 0.0
2017-Sep-21 04:30N 55°56' E 012°46'0 0.0
2017-Sep-21 03:50N 55°56' E 012°46'0 0.0
2017-Sep-21 03:30N 55°56' E 012°46'0 0.0
2017-Sep-21 03:00N 55°56' E 012°46'0 0.0
2017-Sep-21 02:30N 55°56' E 012°46'0 0.0
2017-Sep-21 02:00N 55°56' E 012°46'0 0.0
2017-Sep-21 01:30N 55°56' E 012°46'0 0.0
2017-Sep-20 23:34N 55°56' E 012°46'0 0.0
2017-Sep-20 23:20N 55°56' E 012°46'0 0.0
2017-Sep-20 22:53N 55°56' E 012°46'0 0.0
2017-Sep-20 22:05N 55°56' E 012°46'0 0.0
2017-Sep-20 21:47N 55°56' E 012°46'0 0.0
2017-Sep-20 21:21N 55°56' E 012°46'0 0.0
2017-Sep-20 06:07N 55°56' E 012°46'0 0.0
2017-Sep-20 05:56N 55°56' E 012°46'0 0.0
2017-Sep-20 05:01N 55°56' E 012°46'0 0.0
2017-Sep-20 04:34N 55°56' E 012°46'0 0.1
2017-Sep-20 04:29N 55°56' E 012°46'0 0.0
2017-Sep-20 03:57N 55°56' E 012°46'0 0.0
2017-Sep-20 03:28N 55°56' E 012°46'0 0.0
2017-Sep-20 02:59N 55°56' E 012°46'0 0.0
2017-Sep-20 02:28N 55°56' E 012°46'0 0.0
2017-Sep-20 01:59N 55°56' E 012°46'0 0.0
2017-Sep-20 01:30N 55°56' E 012°46'0 0.0
2017-Sep-20 00:52N 55°56' E 012°46'0 0.0
2017-Sep-20 00:28N 55°56' E 012°46'0 0.0
2017-Sep-19 23:58N 55°56' E 012°46'0 0.0
2017-Sep-19 23:25N 55°56' E 012°46'0 0.0
2017-Sep-19 23:00N 55°56' E 012°46'0 0.0
2017-Sep-19 22:30N 55°56' E 012°46'0 0.0
2017-Sep-19 22:00N 55°56' E 012°46'0 0.0
2017-Sep-19 21:29N 55°56' E 012°46'0 0.0
2017-Sep-19 18:55N 55°56' E 012°46'0 0.0
2017-Sep-19 17:21N 55°56' E 012°46'0 0.0
2017-Sep-19 16:54N 55°56' E 012°46'0 0.0
2017-Sep-19 15:17N 55°56' E 012°46'0 0.0
2017-Sep-19 14:57N 55°56' E 012°46'0 0.0
2017-Sep-19 14:28N 55°56' E 012°46'0 0.0
2017-Sep-19 13:37N 55°56' E 012°46'0 0.0
2017-Sep-19 13:19N 55°56' E 012°46'0 0.0
2017-Sep-19 12:59N 55°56' E 012°46'0 0.0
2017-Sep-19 06:24N 55°56' E 012°46'0 0.0
2017-Sep-19 00:39N 55°56' E 012°46'0 0.0
2017-Sep-19 00:28N 55°56' E 012°46'0 0.0
2017-Sep-19 00:00N 55°56' E 012°46'0 0.0
2017-Sep-18 22:59N 55°56' E 012°46'0 0.0
2017-Sep-18 22:25N 55°56' E 012°46'0 0.0
2017-Sep-18 07:04N 55°56' E 012°46'0 0.0
2017-Sep-18 07:00N 55°56' E 012°46'0 0.0
2017-Sep-18 06:26N 55°56' E 012°46'0 0.0
2017-Sep-18 05:46N 55°56' E 012°46'0 0.0
2017-Sep-18 05:20N 55°56' E 012°46'0 0.0
2017-Sep-18 04:59N 55°56' E 012°46'0 0.0
2017-Sep-18 04:26N 55°56' E 012°46'0 0.0
2017-Sep-18 03:59N 55°56' E 012°46'0 0.0
2017-Sep-18 03:27N 55°56' E 012°46'0 0.0
2017-Sep-18 02:13N 55°56' E 012°46'0 0.0
2017-Sep-18 01:57N 55°56' E 012°46'0 0.0
2017-Sep-18 01:30N 55°56' E 012°46'0 0.0
2017-Sep-18 00:59N 55°56' E 012°46'0 0.0
2017-Sep-18 00:30N 55°56' E 012°46'0 0.0
2017-Sep-18 00:00N 55°56' E 012°46'0 0.0
2017-Sep-17 23:29N 55°56' E 012°46'0 0.0
2017-Sep-17 23:00N 55°56' E 012°46'0 0.0
2017-Sep-17 22:30N 55°56' E 012°46'0 0.0
2017-Sep-17 21:53N 55°56' E 012°46'0 0.0
2017-Sep-17 21:23N 55°56' E 012°46'0 0.0
2017-Sep-17 20:01N 55°56' E 012°46'0 0.0
2017-Sep-17 19:57N 55°56' E 012°46'0 0.0
2017-Sep-17 14:53N 55°56' E 012°46'0 0.0
2017-Sep-17 14:30N 55°56' E 012°46'0 0.0
2017-Sep-17 13:58N 55°56' E 012°46'0 0.0
2017-Sep-17 09:15N 55°56' E 012°46'0 0.0
2017-Sep-17 08:47N 55°56' E 012°46'0 0.0
2017-Sep-17 08:14N 55°56' E 012°46'0 0.0
2017-Sep-17 07:15N 55°56' E 012°46'0 0.0
2017-Sep-17 06:51N 55°56' E 012°46'0 0.0
2017-Sep-17 06:30N 55°56' E 012°46'0 0.0
2017-Sep-17 05:59N 55°56' E 012°46'0 0.0
2017-Sep-17 05:30N 55°56' E 012°46'0 0.0
2017-Sep-17 04:50N 55°56' E 012°46'0 0.0
2017-Sep-17 04:27N 55°56' E 012°46'0 0.0
2017-Sep-17 03:53N 55°56' E 012°46'0 0.0
2017-Sep-17 03:29N 55°56' E 012°46'0 0.0
2017-Sep-17 03:00N 55°56' E 012°46'0 0.0
2017-Sep-17 02:27N 55°56' E 012°46'0 0.0
2017-Sep-17 02:00N 55°56' E 012°46'0 0.0
2017-Sep-17 01:30N 55°56' E 012°46'0 0.0
2017-Sep-17 01:00N 55°56' E 012°46'0 0.0
2017-Sep-17 00:27N 55°56' E 012°46'0 0.0
2017-Sep-16 23:58N 55°56' E 012°46'0 0.0
2017-Sep-16 23:25N 55°56' E 012°46'0 0.0
2017-Sep-16 23:00N 55°56' E 012°46'0 0.0
2017-Sep-16 22:18N 55°56' E 012°46'0 0.0
2017-Sep-16 21:50N 55°56' E 012°46'0 0.0
2017-Sep-16 21:27N 55°56' E 012°46'  

Dump ship's entire track history